createdAt,value
2019-02-05T00:00:36.950Z,11.03
2019-02-05T00:05:33.065Z,7.47
2019-02-05T00:10:29.087Z,5.87
2019-02-05T00:15:25.005Z,8.23
2019-02-05T00:20:21.298Z,4.87
2019-02-05T00:25:17.293Z,10.93
2019-02-05T00:30:15.090Z,5.13
2019-02-05T00:35:11.482Z,8.80
2019-02-05T00:40:12.713Z,7.63
2019-02-05T00:45:11.315Z,5.10
2019-02-05T00:50:10.117Z,8.07
2019-02-05T00:55:14.377Z,7.40
2019-02-05T01:00:16.536Z,5.23
2019-02-05T01:05:12.728Z,6.90
2019-02-05T01:10:09.757Z,10.90
2019-02-05T01:15:11.730Z,9.57
2019-02-05T01:20:10.949Z,13.10
2019-02-05T01:25:08.146Z,17.40
2019-02-05T01:30:10.629Z,12.60
2019-02-05T01:35:07.841Z,13.93
2019-02-05T01:40:07.444Z,18.80
2019-02-05T01:45:06.539Z,14.00
2019-02-05T01:50:05.402Z,10.77
2019-02-05T01:55:01.309Z,16.80
2019-02-05T01:59:57.202Z,13.87
2019-02-05T02:04:53.094Z,13.80
2019-02-05T02:09:48.988Z,17.00
2019-02-05T02:14:44.911Z,14.87
2019-02-05T02:19:41.551Z,12.40
2019-02-05T02:24:38.258Z,18.63
2019-02-05T02:29:34.714Z,18.20
2019-02-05T02:34:30.638Z,17.90
2019-02-05T02:39:26.698Z,30.57
2019-02-05T02:44:22.693Z,22.87
2019-02-05T02:49:18.614Z,21.60
2019-02-05T02:54:15.213Z,20.43
2019-02-05T02:59:11.253Z,17.03
2019-02-05T03:04:07.151Z,21.67
2019-02-05T03:09:08.049Z,22.47
2019-02-05T03:14:04.276Z,21.57
2019-02-05T03:19:00.186Z,20.23
2019-02-05T03:23:59.351Z,23.10
2019-02-05T03:28:55.346Z,22.10
2019-02-05T03:33:51.322Z,20.80
2019-02-05T03:38:47.218Z,18.80
2019-02-05T03:43:43.207Z,18.07
2019-02-05T03:48:39.324Z,21.10
2019-02-05T03:54:02.848Z,23.07
2019-02-05T03:59:05.758Z,16.73
2019-02-05T04:04:11.299Z,16.70
2019-02-05T04:09:45.870Z,19.63
2019-02-05T04:15:05.463Z,18.23
2019-02-05T04:20:29.002Z,13.13
2019-02-05T04:25:47.453Z,20.43
2019-02-05T04:31:04.128Z,17.63
2019-02-05T04:36:12.807Z,24.10
2019-02-05T04:41:18.095Z,18.13
2019-02-05T04:46:23.529Z,18.17
2019-02-05T04:51:38.709Z,18.77
2019-02-05T04:57:07.590Z,21.63
2019-02-05T05:02:16.221Z,19.80
2019-02-05T05:07:35.461Z,20.80
2019-02-05T05:12:31.749Z,23.20
2019-02-05T05:17:27.671Z,21.13
2019-02-05T05:22:23.554Z,18.90
2019-02-05T05:27:19.750Z,22.70
2019-02-05T05:32:16.296Z,23.90
2019-02-05T05:37:11.972Z,27.73
2019-02-05T05:42:07.879Z,21.10
2019-02-05T05:47:03.866Z,25.70
2019-02-05T05:51:59.761Z,22.33
2019-02-05T05:56:55.656Z,24.03
2019-02-05T06:01:51.540Z,38.13
2019-02-05T06:06:47.883Z,33.20
2019-02-05T06:11:43.856Z,28.70
2019-02-05T06:16:39.770Z,34.30
2019-02-05T06:21:35.661Z,33.17
2019-02-05T06:26:31.847Z,36.50
2019-02-05T06:31:27.740Z,35.93
2019-02-05T06:36:23.633Z,42.63
2019-02-05T06:41:19.510Z,28.97
2019-02-05T06:46:15.603Z,55.17
2019-02-05T06:51:11.466Z,40.20
2019-02-05T06:56:07.354Z,55.03
2019-02-05T07:01:03.540Z,65.53
2019-02-05T07:05:59.424Z,66.43
2019-02-05T07:10:55.404Z,45.17
2019-02-05T07:15:51.328Z,47.53
2019-02-05T07:20:47.414Z,65.50
2019-02-05T07:25:43.312Z,48.63
2019-02-05T07:30:39.196Z,64.50
2019-02-05T07:35:35.093Z,54.83
2019-02-05T07:40:31.072Z,63.53
2019-02-05T07:45:26.964Z,55.80
2019-02-05T07:50:24.951Z,58.70
2019-02-05T07:55:20.936Z,77.17
2019-02-05T08:00:26.665Z,82.20
2019-02-05T08:05:30.779Z,70.43
2019-02-05T08:10:26.668Z,75.83
2019-02-05T08:15:25.065Z,51.17
2019-02-05T08:20:20.956Z,66.07
2019-02-05T08:25:16.842Z,67.57
2019-02-05T08:30:42.003Z,79.13
2019-02-05T08:35:37.987Z,91.80
2019-02-05T08:40:33.983Z,96.27
2019-02-05T08:45:31.978Z,67.57
2019-02-05T08:50:30.374Z,88.30
2019-02-05T08:55:26.369Z,66.80
2019-02-05T09:00:27.735Z,93.23
2019-02-05T09:05:23.831Z,84.17
2019-02-05T09:10:25.286Z,50.23
2019-02-05T09:15:29.488Z,87.57
2019-02-05T09:20:29.430Z,88.53
2019-02-05T09:25:25.435Z,85.40
2019-02-05T09:30:26.548Z,76.27
2019-02-05T09:35:22.744Z,61.97
2019-02-05T09:40:21.740Z,60.23
2019-02-05T09:45:18.135Z,56.70
2019-02-05T09:50:17.575Z,64.20
2019-02-05T09:55:18.568Z,52.50
2019-02-05T10:00:17.761Z,92.13
2019-02-05T10:05:18.650Z,78.90
2019-02-05T10:10:16.546Z,90.60
2019-02-05T10:15:17.552Z,26.00
2019-02-05T10:20:14.882Z,90.10
2019-02-05T10:25:12.003Z,65.30
2019-02-05T10:30:12.810Z,68.37
2019-02-05T10:35:10.347Z,65.40
2019-02-05T10:40:09.550Z,60.33
2019-02-05T10:45:16.616Z,53.27
2019-02-05T10:50:15.952Z,61.73
2019-02-05T10:55:16.196Z,70.00
2019-02-05T11:00:26.381Z,78.40
2019-02-05T11:05:24.565Z,62.73
2019-02-05T11:10:20.668Z,75.90
2019-02-05T11:15:19.746Z,63.00
2019-02-05T11:20:17.947Z,51.10
2019-02-05T11:25:14.704Z,71.87
2019-02-05T11:30:20.397Z,56.93
2019-02-05T11:35:12.374Z,55.57
2019-02-05T11:40:12.096Z,53.93
2019-02-05T11:45:11.420Z,24.10
2019-02-05T11:50:13.997Z,22.63
2019-02-05T11:55:15.434Z,44.33
2019-02-05T12:00:16.075Z,39.67
2019-02-05T12:05:12.713Z,35.67
2019-02-05T12:10:11.104Z,20.00
2019-02-05T12:15:10.987Z,15.57
2019-02-05T12:20:10.410Z,24.37
2019-02-05T12:25:09.757Z,28.73
2019-02-05T12:30:18.431Z,30.23
2019-02-05T12:35:14.494Z,22.90
2019-02-05T12:40:13.889Z,18.37
2019-02-05T12:45:16.452Z,35.53
2019-02-05T12:50:15.460Z,14.07
2019-02-05T12:55:16.323Z,39.87
2019-02-05T13:00:17.933Z,41.97
2019-02-05T13:05:14.227Z,52.23
2019-02-05T13:10:13.826Z,53.00
2019-02-05T13:15:10.634Z,31.80
2019-02-05T13:20:23.156Z,54.73
2019-02-05T13:25:21.867Z,54.13
2019-02-05T13:30:27.886Z,47.80
2019-02-05T13:35:24.179Z,40.47
2019-02-05T13:40:24.271Z,63.00
2019-02-05T13:45:23.074Z,42.27
2019-02-05T13:50:32.406Z,34.60
2019-02-05T13:55:25.836Z,33.73
2019-02-05T14:00:28.587Z,47.17
2019-02-05T14:05:28.863Z,41.77
2019-02-05T14:10:30.661Z,45.87
2019-02-05T14:15:30.120Z,49.73
2019-02-05T14:20:27.019Z,45.43
2019-02-05T14:25:23.648Z,46.33
2019-02-05T14:30:27.180Z,37.80
2019-02-05T14:35:25.258Z,56.37
2019-02-05T14:40:24.095Z,49.40
2019-02-05T14:45:22.052Z,42.53
2019-02-05T14:50:25.198Z,52.20
2019-02-05T14:55:21.434Z,41.57
2019-02-05T15:00:28.146Z,48.23
2019-02-05T15:05:24.563Z,52.77
2019-02-05T15:10:20.650Z,43.57
2019-02-05T15:15:18.778Z,41.60
2019-02-05T15:20:18.148Z,26.97
2019-02-05T15:25:14.247Z,43.37
2019-02-05T15:30:25.929Z,49.50
2019-02-05T15:35:21.987Z,40.73
2019-02-05T15:40:17.986Z,42.47
2019-02-05T15:45:14.603Z,50.63
2019-02-05T15:50:15.529Z,45.70
2019-02-05T15:55:14.986Z,42.30
2019-02-05T16:00:19.526Z,44.40
2019-02-05T16:05:15.523Z,50.27
2019-02-05T16:10:21.485Z,39.60
2019-02-05T16:15:21.997Z,54.33
2019-02-05T16:20:20.883Z,41.33
2019-02-05T16:25:23.194Z,43.10
2019-02-05T16:30:22.415Z,47.40
2019-02-05T16:35:19.049Z,53.13
2019-02-05T16:40:29.415Z,46.10
2019-02-05T16:45:27.292Z,48.73
2019-02-05T16:50:25.889Z,52.23
2019-02-05T16:55:22.957Z,46.07
2019-02-05T17:00:26.580Z,47.83
2019-02-05T17:05:25.990Z,47.40
2019-02-05T17:10:22.857Z,55.07
2019-02-05T17:15:20.000Z,46.90
2019-02-05T17:20:25.933Z,48.53
2019-02-05T17:25:24.372Z,52.00
2019-02-05T17:30:23.436Z,55.40
2019-02-05T17:35:19.549Z,56.00
2019-02-05T17:40:24.467Z,50.27
2019-02-05T17:45:25.609Z,54.37
2019-02-05T17:50:21.784Z,71.67
2019-02-05T17:55:18.626Z,64.20
2019-02-05T18:05:40.989Z,55.63
2019-02-05T18:10:36.979Z,64.63
2019-02-05T18:16:14.551Z,59.27
2019-02-05T18:21:11.767Z,78.00
2019-02-05T18:26:07.663Z,75.80
2019-02-05T18:31:05.435Z,74.00
2019-02-05T18:36:01.358Z,77.63
2019-02-05T18:40:57.460Z,92.97
2019-02-05T18:46:13.390Z,74.23
2019-02-05T18:51:09.276Z,82.63
2019-02-05T18:56:05.752Z,75.90
2019-02-05T19:01:01.805Z,74.27
2019-02-05T19:05:57.794Z,77.33
2019-02-05T19:10:53.761Z,69.97
2019-02-05T19:15:49.697Z,76.80
2019-02-05T19:20:45.651Z,72.47
2019-02-05T19:26:01.421Z,71.77
2019-02-05T19:36:01.501Z,65.50
2019-02-05T19:40:57.977Z,66.80
2019-02-05T19:46:15.143Z,57.47
2019-02-05T19:51:11.132Z,65.70
2019-02-05T19:56:07.028Z,64.17
2019-02-05T20:11:53.097Z,62.43
2019-02-05T20:16:49.013Z,58.70
2019-02-05T20:21:44.901Z,61.50
2019-02-05T20:26:40.788Z,64.40
2019-02-05T20:31:36.672Z,57.00
2019-02-05T20:36:32.553Z,62.67
2019-02-05T20:41:30.335Z,67.30
2019-02-05T20:46:26.336Z,60.23
2019-02-05T20:51:22.229Z,62.50
2019-02-05T20:56:25.564Z,59.00
2019-02-05T21:01:21.452Z,63.83
2019-02-05T21:06:17.429Z,59.33
2019-02-05T21:11:13.321Z,65.90
2019-02-05T21:16:11.896Z,64.63
2019-02-05T21:21:07.915Z,52.33
2019-02-05T21:26:45.905Z,50.13
2019-02-05T21:31:42.573Z,49.73
2019-02-05T21:36:40.444Z,47.53
2019-02-05T21:42:20.278Z,51.60
2019-02-05T21:47:19.739Z,46.67
2019-02-05T21:52:15.674Z,48.10
2019-02-05T21:57:11.600Z,52.30
2019-02-05T22:02:07.641Z,47.40
2019-02-05T22:07:05.476Z,56.30
2019-02-05T22:12:01.424Z,53.70
2019-02-05T22:16:57.424Z,54.47
2019-02-05T22:21:55.177Z,49.40
2019-02-05T22:26:51.060Z,49.37
2019-02-05T22:31:46.948Z,54.40
2019-02-05T22:36:44.736Z,46.47
2019-02-05T22:41:40.653Z,49.67
2019-02-05T22:46:36.547Z,45.00
2019-02-05T22:51:32.531Z,43.57
2019-02-05T22:56:28.546Z,46.50
2019-02-05T23:01:46.475Z,50.87
2019-02-05T23:07:24.005Z,45.00
2019-02-05T23:12:39.964Z,48.10
2019-02-05T23:17:35.876Z,42.77
2019-02-05T23:22:31.759Z,43.23
2019-02-05T23:27:27.745Z,41.43
2019-02-05T23:32:23.784Z,45.60
2019-02-05T23:37:19.673Z,43.67
2019-02-05T23:42:15.665Z,42.63
2019-02-05T23:47:11.653Z,38.27
2019-02-05T23:52:07.743Z,43.47
2019-02-05T23:57:03.728Z,44.73
